Terminal Aerodrome Forecast
Issued by NWS

Home | Current Version | Previous Version | Text Only | Print | Product List | Glossary On
Versions: 1 2 3 4 5 6 7 8 9 10 11 12 13 14 15 16 17 18 19 20 21 22
000
FTUS42 TJSJ 221134
TAFIST
TAF
TIST 221134Z 2212/2312 10010KT P6SM SCT020 BKN200
     FM221450 13014KT P6SM SCT025 SCT200
     FM222300 09009KT P6SM FEW022=

USA.gov is the U.S. government's official web portal to all federal, state and local government web resources and services.